createdAt,value
2019-01-03T00:02:44.029Z,-0.60
2019-01-03T00:05:50.473Z,-0.60
2019-01-03T00:08:50.705Z,-0.60
2019-01-03T00:11:32.533Z,-0.60
2019-01-03T00:14:23.434Z,-0.60
2019-01-03T00:17:20.481Z,-0.60
2019-01-03T00:20:07.266Z,-0.60
2019-01-03T00:22:54.106Z,-0.60
2019-01-03T00:25:41.287Z,-0.60
2019-01-03T00:28:28.102Z,-0.60
2019-01-03T00:31:19.289Z,-0.50
2019-01-03T00:34:12.566Z,-0.60
2019-01-03T00:37:00.710Z,-0.60
2019-01-03T00:39:43.504Z,-0.60
2019-01-03T00:42:37.703Z,-0.60
2019-01-03T00:45:22.269Z,-0.60
2019-01-03T00:48:13.431Z,-0.60
2019-01-03T00:51:00.482Z,-0.60
2019-01-03T00:53:56.511Z,-0.60
2019-01-03T00:56:51.469Z,-0.60
2019-01-03T00:59:55.123Z,-0.60
2019-01-03T01:02:38.809Z,-0.70
2019-01-03T01:05:25.856Z,-0.70
2019-01-03T01:08:12.817Z,-0.70
2019-01-03T01:11:00.005Z,-0.70
2019-01-03T01:14:03.266Z,-0.70
2019-01-03T01:16:51.949Z,-0.70
2019-01-03T01:19:49.217Z,-0.70
2019-01-03T01:22:52.734Z,-0.70
2019-01-03T01:25:39.715Z,-0.70
2019-01-03T01:28:26.509Z,-0.70
2019-01-03T01:31:13.260Z,-0.70
2019-01-03T01:34:00.278Z,-0.70
2019-01-03T01:37:03.516Z,-0.70
2019-01-03T01:39:57.515Z,-0.70
2019-01-03T01:42:51.581Z,-0.70
2019-01-03T01:45:38.495Z,-0.70
2019-01-03T01:48:26.640Z,-0.70
2019-01-03T01:51:13.452Z,-0.70
2019-01-03T01:54:16.941Z,-0.70
2019-01-03T01:57:03.992Z,-0.70
2019-01-03T01:59:50.701Z,-0.70
2019-01-03T02:02:38.837Z,-0.70
2019-01-03T02:05:34.481Z,-0.70
2019-01-03T02:08:28.737Z,-0.80
2019-01-03T02:11:19.681Z,-0.70
2019-01-03T02:14:00.199Z,-0.70
2019-01-03T02:16:45.821Z,-0.70
2019-01-03T02:19:33.817Z,-0.70
2019-01-03T02:22:40.201Z,-0.70
2019-01-03T02:25:34.307Z,-0.80
2019-01-03T02:28:21.320Z,-0.80
2019-01-03T02:31:15.595Z,-0.80
2019-01-03T02:34:02.351Z,-0.80
2019-01-03T02:36:49.316Z,-0.80
2019-01-03T02:39:40.443Z,-0.80
2019-01-03T02:42:40.734Z,-0.80
2019-01-03T02:45:35.023Z,-0.80
2019-01-03T02:48:32.943Z,-0.80
2019-01-03T02:51:33.262Z,-0.90
2019-01-03T02:54:19.979Z,-0.90
2019-01-03T02:57:06.881Z,-0.90
2019-01-03T02:59:54.282Z,-0.90
2019-01-03T03:02:34.085Z,-0.90
2019-01-03T03:05:20.857Z,-1.00
2019-01-03T03:08:06.765Z,-1.00
2019-01-03T03:11:03.674Z,-1.00
2019-01-03T03:14:00.820Z,-1.00
2019-01-03T03:16:57.902Z,-1.00
2019-01-03T03:19:51.845Z,-1.00
2019-01-03T03:22:42.791Z,-1.00
2019-01-03T03:25:30.940Z,-1.00
2019-01-03T03:28:28.940Z,-1.00
2019-01-03T03:31:17.101Z,-1.00
2019-01-03T03:34:11.057Z,-0.90
2019-01-03T03:36:58.022Z,-0.90
2019-01-03T03:39:55.274Z,-0.90
2019-01-03T03:42:58.709Z,-0.90
2019-01-03T03:45:45.426Z,-1.00
2019-01-03T03:48:43.151Z,-1.00
2019-01-03T03:51:34.309Z,-1.00
2019-01-03T03:54:30.228Z,-1.00
2019-01-03T03:57:18.527Z,-1.00
2019-01-03T04:00:18.832Z,-1.10
2019-01-03T04:03:16.024Z,-1.10
2019-01-03T04:06:02.760Z,-1.10
2019-01-03T04:09:03.217Z,-1.10
2019-01-03T04:11:50.113Z,-1.10
2019-01-03T04:14:44.159Z,-1.10
2019-01-03T04:17:23.901Z,-1.10
2019-01-03T04:20:18.094Z,-1.00
2019-01-03T04:23:15.243Z,-1.10
2019-01-03T04:26:02.355Z,-1.10
2019-01-03T04:28:50.480Z,-1.20
2019-01-03T04:31:38.645Z,-1.20
2019-01-03T04:34:25.314Z,-1.10
2019-01-03T04:37:13.455Z,-1.10
2019-01-03T04:40:00.360Z,-1.20
2019-01-03T04:42:47.336Z,-1.20
2019-01-03T04:45:36.750Z,-1.20
2019-01-03T04:48:23.542Z,-1.20
2019-01-03T04:51:27.010Z,-1.20
2019-01-03T04:54:24.214Z,-1.30
2019-01-03T04:57:24.629Z,-1.30
2019-01-03T05:00:11.304Z,-1.30
2019-01-03T05:02:58.203Z,-1.30
2019-01-03T05:06:01.598Z,-1.30
2019-01-03T05:08:48.523Z,-1.40
2019-01-03T05:11:35.379Z,-1.40
2019-01-03T05:14:26.267Z,-1.40
2019-01-03T05:17:13.386Z,-1.40
2019-01-03T05:20:00.274Z,-1.40
2019-01-03T05:22:47.108Z,-1.40
2019-01-03T05:25:53.580Z,-1.40
2019-01-03T05:28:47.560Z,-1.40
2019-01-03T05:31:47.957Z,-1.30
2019-01-03T05:34:34.753Z,-1.30
2019-01-03T05:37:12.563Z,-1.30
2019-01-03T05:40:03.677Z,-1.30
2019-01-03T05:42:55.143Z,-1.30
2019-01-03T05:45:55.310Z,-1.30
2019-01-03T05:48:58.454Z,-1.30
2019-01-03T05:51:49.668Z,-1.20
2019-01-03T05:54:46.979Z,-1.20
2019-01-03T05:57:43.996Z,-1.30
2019-01-03T06:00:47.448Z,-1.30
2019-01-03T06:03:38.091Z,-1.30
2019-01-03T06:06:26.237Z,-1.30
2019-01-03T06:09:23.447Z,-1.40
2019-01-03T06:12:23.864Z,-1.40
2019-01-03T06:15:26.970Z,-1.40
2019-01-03T06:18:33.626Z,-1.40
2019-01-03T06:21:21.779Z,-1.40
2019-01-03T06:24:22.055Z,-1.40
2019-01-03T06:27:13.118Z,-1.40
2019-01-03T06:30:01.245Z,-1.40
2019-01-03T06:33:01.788Z,-1.40
2019-01-03T06:35:48.698Z,-1.40
2019-01-03T06:38:36.823Z,-1.40
2019-01-03T06:41:23.849Z,-1.40
2019-01-03T06:44:26.540Z,-1.40
2019-01-03T06:47:13.602Z,-1.40
2019-01-03T06:50:11.136Z,-1.40
2019-01-03T06:52:53.017Z,-1.50
2019-01-03T06:55:39.817Z,-1.40
2019-01-03T06:58:27.986Z,-1.50
2019-01-03T07:01:09.644Z,-1.50
2019-01-03T07:03:52.176Z,-1.50
2019-01-03T07:06:58.614Z,-1.60
2019-01-03T07:09:59.068Z,-1.60
2019-01-03T07:12:45.837Z,-1.50
2019-01-03T07:15:37.094Z,-1.50
2019-01-03T07:18:28.377Z,-1.50
2019-01-03T07:21:27.215Z,-1.50
2019-01-03T07:24:11.442Z,-1.50
2019-01-03T07:26:58.165Z,-1.50
2019-01-03T07:30:01.601Z,-1.50
2019-01-03T07:32:52.333Z,-1.50
2019-01-03T07:35:39.157Z,-1.40
2019-01-03T07:38:36.267Z,-1.40
2019-01-03T07:41:36.197Z,-1.40
2019-01-03T07:44:33.574Z,-1.40
2019-01-03T07:47:25.808Z,-1.40
2019-01-03T07:50:17.360Z,-1.40
2019-01-03T07:53:04.228Z,-1.40
2019-01-03T07:55:55.091Z,-1.40
2019-01-03T07:58:43.321Z,-1.30
2019-01-03T08:01:28.502Z,-1.30
2019-01-03T08:04:22.868Z,-1.30
2019-01-03T08:07:10.073Z,-1.30
2019-01-03T08:09:58.404Z,-1.30
2019-01-03T08:12:53.435Z,-1.30
2019-01-03T08:15:44.324Z,-1.30
2019-01-03T08:18:30.976Z,-1.30
2019-01-03T08:21:19.099Z,-1.30
2019-01-03T08:24:06.108Z,-1.30
2019-01-03T08:26:52.903Z,-1.30
2019-01-03T08:29:39.698Z,-1.30
2019-01-03T08:32:46.216Z,-1.20
2019-01-03T08:35:37.348Z,-1.20
2019-01-03T08:38:31.084Z,-1.30
2019-01-03T08:41:37.350Z,-1.30
2019-01-03T08:44:37.021Z,-1.30
2019-01-03T08:47:24.005Z,-1.30
2019-01-03T08:50:10.688Z,-1.30
2019-01-03T08:53:05.162Z,-1.30
2019-01-03T08:55:52.956Z,-1.30
2019-01-03T08:58:51.167Z,-1.30
2019-01-03T09:01:52.380Z,-1.30
2019-01-03T09:04:39.550Z,-1.30
2019-01-03T09:07:37.003Z,-1.20
2019-01-03T09:10:43.766Z,-1.30
2019-01-03T09:13:30.930Z,-1.20
2019-01-03T09:16:28.391Z,-1.30
2019-01-03T09:19:22.832Z,-1.20
2019-01-03T09:22:26.014Z,-1.20
2019-01-03T09:25:27.261Z,-1.10
2019-01-03T09:28:30.470Z,-1.10
2019-01-03T09:31:23.091Z,-1.10
2019-01-03T09:34:09.731Z,-1.10
2019-01-03T09:37:03.957Z,-1.00
2019-01-03T09:40:04.461Z,-0.40
2019-01-03T09:43:03.404Z,-0.40
2019-01-03T09:45:43.820Z,-0.60
2019-01-03T09:48:03.388Z,-0.70
2019-01-03T09:50:32.625Z,-0.70
2019-01-03T09:53:01.788Z,-0.70
2019-01-03T09:55:31.532Z,-0.80
2019-01-03T09:58:00.745Z,-0.50
2019-01-03T10:00:37.478Z,0.50
2019-01-03T10:03:06.710Z,1.00
2019-01-03T10:05:35.920Z,1.50
2019-01-03T10:08:05.380Z,0.90
2019-01-03T10:10:34.588Z,1.00
2019-01-03T10:13:03.773Z,0.50
2019-01-03T10:15:32.923Z,0.20
2019-01-03T10:18:02.929Z,0.10
2019-01-03T10:20:32.391Z,-0.20
2019-01-03T10:23:01.604Z,0.10
2019-01-03T10:25:35.025Z,-0.20
2019-01-03T10:28:05.103Z,-0.20
2019-01-03T10:30:34.275Z,-0.40
2019-01-03T10:33:03.500Z,-0.50
2019-01-03T10:35:32.663Z,-0.10
2019-01-03T10:38:01.834Z,1.30
2019-01-03T10:40:31.042Z,1.80
2019-01-03T10:43:00.182Z,1.70
2019-01-03T10:45:29.380Z,1.30
2019-01-03T10:47:59.403Z,1.40
2019-01-03T10:50:28.791Z,1.50
2019-01-03T10:52:57.998Z,1.00
2019-01-03T10:55:28.125Z,1.00
2019-01-03T10:57:57.419Z,1.20
2019-01-03T11:00:26.629Z,1.20
2019-01-03T11:02:56.118Z,1.50
2019-01-03T11:05:25.316Z,1.20
2019-01-03T11:07:54.426Z,1.40
2019-01-03T11:10:23.621Z,1.20
2019-01-03T11:12:53.468Z,1.10
2019-01-03T11:15:22.573Z,1.00
2019-01-03T11:17:51.773Z,1.00
2019-01-03T11:20:20.978Z,1.30
2019-01-03T11:22:50.158Z,1.40
2019-01-03T11:25:19.353Z,1.40
2019-01-03T11:27:48.537Z,1.00
2019-01-03T11:30:17.741Z,1.00
2019-01-03T11:32:47.476Z,0.50
2019-01-03T11:35:16.824Z,1.00
2019-01-03T11:37:48.109Z,1.30
2019-01-03T11:40:17.430Z,1.70
2019-01-03T11:42:47.063Z,2.10
2019-01-03T11:49:18.472Z,2.10
2019-01-03T11:51:51.721Z,2.40
2019-01-03T11:54:21.650Z,2.00
2019-01-03T11:56:51.505Z,1.50
2019-01-03T11:59:20.698Z,1.20
2019-01-03T12:01:50.321Z,1.10
2019-01-03T12:04:19.774Z,0.70
2019-01-03T12:06:49.216Z,0.50
2019-01-03T12:09:18.355Z,0.30
2019-01-03T12:11:47.873Z,0.20
2019-01-03T12:14:17.480Z,0.30
2019-01-03T12:16:46.661Z,0.90
2019-01-03T12:19:16.183Z,1.30
2019-01-03T12:21:45.626Z,1.30
2019-01-03T12:24:14.934Z,1.10
2019-01-03T12:26:44.196Z,0.90
2019-01-03T12:29:13.522Z,0.60
2019-01-03T12:31:42.740Z,0.50
2019-01-03T12:34:11.911Z,0.40
2019-01-03T12:36:41.095Z,0.40
2019-01-03T12:39:10.291Z,0.40
2019-01-03T12:41:39.586Z,0.20
2019-01-03T12:44:09.541Z,0.10
2019-01-03T12:46:38.788Z,0.00
2019-01-03T12:49:07.931Z,0.10
2019-01-03T12:51:37.112Z,0.00
2019-01-03T12:54:06.319Z,-0.20
2019-01-03T12:56:35.503Z,-0.30
2019-01-03T12:59:04.736Z,-0.40
2019-01-03T13:01:34.549Z,-0.40
2019-01-03T13:04:05.076Z,-0.40
2019-01-03T13:06:34.246Z,-0.40
2019-01-03T13:09:06.381Z,-0.40
2019-01-03T13:11:35.628Z,-0.40
2019-01-03T13:14:05.224Z,-0.50
2019-01-03T13:16:34.508Z,-0.60
2019-01-03T13:19:03.735Z,-0.70
2019-01-03T13:21:33.079Z,-0.70
2019-01-03T13:24:02.286Z,-0.70
2019-01-03T13:26:31.447Z,-0.70
2019-01-03T13:29:00.646Z,-0.70
2019-01-03T13:31:31.235Z,-0.70
2019-01-03T13:34:00.955Z,-0.70
2019-01-03T13:36:33.236Z,-0.80
2019-01-03T13:39:02.081Z,-0.80
2019-01-03T13:41:31.746Z,-0.80
2019-01-03T13:44:00.884Z,-0.70
2019-01-03T13:46:30.078Z,-0.70
2019-01-03T13:48:59.645Z,-0.70
2019-01-03T13:51:28.815Z,-0.80
2019-01-03T13:53:58.077Z,-0.80
2019-01-03T13:56:27.712Z,-0.80
2019-01-03T13:58:58.910Z,-0.80
2019-01-03T14:01:28.193Z,-0.80
2019-01-03T14:03:57.409Z,-0.80
2019-01-03T14:06:26.619Z,-0.70
2019-01-03T14:08:56.830Z,-0.80
2019-01-03T14:11:26.642Z,-0.90
2019-01-03T14:13:55.849Z,-0.80
2019-01-03T14:16:25.031Z,-0.80
2019-01-03T14:18:54.295Z,-0.80
2019-01-03T14:21:23.498Z,-0.80
2019-01-03T14:23:52.694Z,-0.80
2019-01-03T14:26:22.962Z,-0.80
2019-01-03T14:28:52.334Z,-0.80
2019-01-03T14:31:21.569Z,-0.90
2019-01-03T14:33:50.885Z,-0.90
2019-01-03T14:36:20.469Z,-0.80
2019-01-03T14:38:49.686Z,-0.80
2019-01-03T14:41:18.878Z,-0.90
2019-01-03T14:43:48.480Z,-0.90
2019-01-03T14:46:17.776Z,-1.00
2019-01-03T14:48:46.983Z,-1.00
2019-01-03T14:51:16.285Z,-1.00
2019-01-03T14:53:47.335Z,-1.00
2019-01-03T14:56:16.545Z,-1.00
2019-01-03T14:58:45.837Z,-1.00
2019-01-03T15:01:15.379Z,-1.00
2019-01-03T15:03:44.658Z,-1.00
2019-01-03T15:06:15.470Z,-1.00
2019-01-03T15:08:44.665Z,-1.00
2019-01-03T15:11:19.669Z,-1.10
2019-01-03T15:13:48.878Z,-1.10
2019-01-03T15:16:18.111Z,-1.10
2019-01-03T15:18:47.415Z,-1.20
2019-01-03T15:21:16.607Z,-1.20
2019-01-03T15:23:45.812Z,-1.20
2019-01-03T15:26:14.985Z,-1.20
2019-01-03T15:28:44.338Z,-1.20
2019-01-03T15:31:13.561Z,-1.20
2019-01-03T15:33:42.845Z,-1.20
2019-01-03T15:36:12.152Z,-1.20
2019-01-03T15:38:41.571Z,-1.20
2019-01-03T15:41:10.803Z,-1.20
2019-01-03T15:43:40.045Z,-1.20
2019-01-03T15:46:09.699Z,-1.20
2019-01-03T15:48:38.895Z,-1.20
2019-01-03T15:51:08.094Z,-1.20
2019-01-03T15:53:37.269Z,-1.20
2019-01-03T15:56:06.485Z,-1.20
2019-01-03T15:58:36.034Z,-1.20
2019-01-03T16:01:07.112Z,-1.20
2019-01-03T16:03:40.752Z,-1.20
2019-01-03T16:06:11.019Z,-1.20
2019-01-03T16:08:40.262Z,-1.20
2019-01-03T16:11:09.500Z,-1.20
2019-01-03T16:13:38.722Z,-1.30
2019-01-03T16:16:08.013Z,-1.30
2019-01-03T16:18:37.721Z,-1.30
2019-01-03T16:21:07.122Z,-1.30
2019-01-03T16:23:36.492Z,-1.20
2019-01-03T16:26:07.821Z,-1.30
2019-01-03T16:28:37.040Z,-1.20
2019-01-03T16:31:06.352Z,-1.20
2019-01-03T16:33:36.054Z,-1.30
2019-01-03T16:36:05.398Z,-1.30
2019-01-03T16:38:34.733Z,-1.40
2019-01-03T16:41:05.013Z,-1.40
2019-01-03T16:43:34.669Z,-1.40
2019-01-03T16:46:04.503Z,-1.40
2019-01-03T16:48:33.784Z,-1.40
2019-01-03T16:51:03.396Z,-1.30
2019-01-03T16:53:32.625Z,-1.30
2019-01-03T16:56:01.991Z,-1.30
2019-01-03T16:58:31.300Z,-1.40
2019-01-03T17:01:00.616Z,-1.40
2019-01-03T17:03:29.814Z,-1.40
2019-01-03T17:05:59.231Z,-1.30
2019-01-03T17:08:28.457Z,-1.40
2019-01-03T17:10:57.712Z,-1.30
2019-01-03T17:13:27.150Z,-1.30
2019-01-03T17:15:59.465Z,-1.30
2019-01-03T17:18:28.655Z,-1.30
2019-01-03T17:20:57.891Z,-1.30
2019-01-03T17:23:27.104Z,-1.30
2019-01-03T17:25:57.242Z,-1.30
2019-01-03T17:28:26.502Z,-1.30
2019-01-03T17:30:58.697Z,-1.40
2019-01-03T17:33:27.926Z,-1.50
2019-01-03T17:35:58.846Z,-1.50
2019-01-03T17:38:28.074Z,-1.50
2019-01-03T17:41:07.363Z,-1.50
2019-01-03T17:43:37.298Z,-1.50
2019-01-03T17:46:06.611Z,-1.60
2019-01-03T17:48:35.809Z,-1.50
2019-01-03T17:51:06.756Z,-1.60
2019-01-03T17:53:36.214Z,-1.60
2019-01-03T17:56:05.981Z,-1.60
2019-01-03T17:58:35.328Z,-1.60
2019-01-03T18:01:04.650Z,-1.60
2019-01-03T18:03:34.460Z,-1.60
2019-01-03T18:06:05.380Z,-1.60
2019-01-03T18:08:34.739Z,-1.60
2019-01-03T18:11:06.139Z,-1.60
2019-01-03T18:13:35.576Z,-1.70
2019-01-03T18:16:04.936Z,-1.70
2019-01-03T18:18:36.756Z,-1.60
2019-01-03T18:21:07.293Z,-1.60
2019-01-03T18:23:36.931Z,-1.60
2019-01-03T18:26:10.052Z,-1.60
2019-01-03T18:28:40.480Z,-1.60
2019-01-03T18:31:10.284Z,-1.60
2019-01-03T18:33:39.532Z,-1.70
2019-01-03T18:36:08.838Z,-1.70
2019-01-03T18:38:38.848Z,-1.70
2019-01-03T18:41:09.347Z,-1.70
2019-01-03T18:43:39.072Z,-1.60
2019-01-03T18:46:08.304Z,-1.70
2019-01-03T18:48:37.496Z,-1.80
2019-01-03T18:51:08.107Z,-1.80
2019-01-03T18:53:37.357Z,-1.80
2019-01-03T18:56:07.284Z,-1.80
2019-01-03T18:58:36.683Z,-1.90
2019-01-03T19:01:05.998Z,-1.90
2019-01-03T19:03:35.359Z,-1.90
2019-01-03T19:06:04.726Z,-1.90
2019-01-03T19:08:34.176Z,-1.90
2019-01-03T19:11:03.501Z,-1.90
2019-01-03T19:13:32.832Z,-1.90
2019-01-03T19:16:02.032Z,-1.80
2019-01-03T19:18:33.370Z,-1.80
2019-01-03T19:21:04.373Z,-1.80
2019-01-03T19:23:33.594Z,-1.70
2019-01-03T19:26:06.077Z,-1.70
2019-01-03T19:28:35.325Z,-1.70
2019-01-03T19:31:04.544Z,-1.70
2019-01-03T19:33:33.789Z,-1.70
2019-01-03T19:36:03.288Z,-1.60
2019-01-03T19:38:32.977Z,-1.60
2019-01-03T19:41:02.227Z,-1.60
2019-01-03T19:43:31.485Z,-1.80
2019-01-03T19:46:01.090Z,-1.80
2019-01-03T19:48:31.443Z,-1.80
2019-01-03T19:51:00.817Z,-1.80
2019-01-03T19:53:30.648Z,-1.90
2019-01-03T19:56:00.376Z,-1.90
2019-01-03T19:58:29.617Z,-1.90
2019-01-03T20:00:58.888Z,-2.00
2019-01-03T20:03:28.116Z,-2.00
2019-01-03T20:05:57.393Z,-2.00
2019-01-03T20:08:26.571Z,-2.00
2019-01-03T20:10:56.491Z,-2.00
2019-01-03T20:13:25.750Z,-2.00
2019-01-03T20:15:54.969Z,-1.90
2019-01-03T20:18:25.335Z,-2.00
2019-01-03T20:20:54.580Z,-2.00
2019-01-03T20:23:23.825Z,-2.00
2019-01-03T20:25:53.059Z,-1.90
2019-01-03T20:28:22.314Z,-1.90
2019-01-03T20:30:52.391Z,-1.90
2019-01-03T20:33:24.047Z,-1.90
2019-01-03T20:35:53.898Z,-1.90
2019-01-03T20:38:23.225Z,-2.00
2019-01-03T20:40:52.499Z,-2.00
2019-01-03T20:43:22.437Z,-2.00
2019-01-03T20:45:52.448Z,-2.10
2019-01-03T20:48:23.810Z,-2.20
2019-01-03T20:50:53.364Z,-2.20
2019-01-03T20:53:22.729Z,-2.30
2019-01-03T20:55:52.129Z,-2.20
2019-01-03T20:58:22.259Z,-2.30
2019-01-03T21:00:51.502Z,-2.20
2019-01-03T21:03:20.731Z,-2.20
2019-01-03T21:05:50.551Z,-2.20
2019-01-03T21:08:20.153Z,-2.20
2019-01-03T21:10:51.283Z,-2.20
2019-01-03T21:13:20.603Z,-2.30
2019-01-03T21:15:49.837Z,-2.30
2019-01-03T21:18:19.028Z,-2.30
2019-01-03T21:21:02.142Z,-2.20
2019-01-03T21:23:31.691Z,-2.10
2019-01-03T21:26:00.949Z,-2.20
2019-01-03T21:28:30.144Z,-2.30
2019-01-03T21:30:59.356Z,-2.40
2019-01-03T21:33:28.603Z,-2.50
2019-01-03T21:35:58.047Z,-2.50
2019-01-03T21:38:29.133Z,-2.40
2019-01-03T21:40:58.431Z,-2.40
2019-01-03T21:43:27.679Z,-2.40
2019-01-03T21:45:56.919Z,-2.40
2019-01-03T21:48:26.185Z,-2.40
2019-01-03T21:50:57.062Z,-2.40
2019-01-03T21:53:26.753Z,-2.30
2019-01-03T21:55:56.409Z,-2.40
2019-01-03T21:58:27.711Z,-2.50
2019-01-03T22:01:03.556Z,-2.40
2019-01-03T22:03:33.468Z,-2.40
2019-01-03T22:06:25.609Z,-2.50
2019-01-03T22:09:04.773Z,-2.40
2019-01-03T22:11:33.999Z,-2.30
2019-01-03T22:14:03.349Z,-2.40
2019-01-03T22:16:33.583Z,-2.40
2019-01-03T22:19:02.992Z,-2.40
2019-01-03T22:21:32.289Z,-2.40
2019-01-03T22:24:01.489Z,-2.40
2019-01-03T22:26:31.547Z,-2.40
2019-01-03T22:29:02.918Z,-2.50
2019-01-03T22:31:32.178Z,-2.50
2019-01-03T22:34:02.469Z,-2.50
2019-01-03T22:36:31.694Z,-2.40
2019-01-03T22:39:00.921Z,-2.50
2019-01-03T22:41:30.488Z,-2.60
2019-01-03T22:44:00.052Z,-2.50
2019-01-03T22:46:29.205Z,-2.50
2019-01-03T22:48:58.435Z,-2.50
2019-01-03T22:51:27.634Z,-2.50
2019-01-03T22:53:56.863Z,-2.50
2019-01-03T22:56:26.075Z,-2.50
2019-01-03T22:58:55.289Z,-2.60
2019-01-03T23:01:24.488Z,-2.60
2019-01-03T23:03:54.323Z,-2.60
2019-01-03T23:06:23.887Z,-2.60
2019-01-03T23:08:53.085Z,-2.60
2019-01-03T23:11:22.358Z,-2.60
2019-01-03T23:13:51.518Z,-2.60
2019-01-03T23:16:20.688Z,-2.60
2019-01-03T23:18:49.886Z,-2.60
2019-01-03T23:21:19.103Z,-2.70
2019-01-03T23:23:48.286Z,-2.60
2019-01-03T23:26:17.453Z,-2.60
2019-01-03T23:28:47.434Z,-2.60
2019-01-03T23:31:16.622Z,-2.60
2019-01-03T23:33:45.720Z,-2.60
2019-01-03T23:36:14.991Z,-2.60
2019-01-03T23:38:44.087Z,-2.60
2019-01-03T23:41:13.351Z,-2.60
2019-01-03T23:43:42.582Z,-2.60
2019-01-03T23:46:11.802Z,-2.60
2019-01-03T23:48:41.546Z,-2.60
2019-01-03T23:51:10.704Z,-2.60
2019-01-03T23:53:39.878Z,-2.50
2019-01-03T23:56:09.022Z,-2.60
2019-01-03T23:58:38.202Z,-2.60
